Weather at Maryborough Airport

Public forecast

Using degrees Celsius for public forecast. Weather courtesy of forecast.io.

Closest aviation weather report (METAR) to Maryborough Airport

Closest report is Sunshine Coast Airport, 67.8 nm (125.6 km) SSE.

2024/05/22 23:00 (retrieved 34 minutes ago)

YBSU 222300Z AUTO 19014KT 9999 // NCD 20/13 Q1024 RF000/0000

Closest aviation forecast (TAF) to Maryborough Airport

Closest forecast is Sunshine Coast Airport, 67.8 nm (125.6 km) SSE.

2024/05/22 18:00 (retrieved 6 hours ago)

TAF YBSU 221705Z 2218/2318 21009KT 9999 FEW020 FM230000 15013KT CAVOK FM231000 22008KT CAVOK